Angleton, TX

12:48 AM CST on January 31, 2015 (GMT -0600)
Nelson's Weather Station | Change Station
CLOSE
Current Station
Personal Weather Station
Location: Angleton, TX
Elevation: 36 ft
Nearby Weather Stations

Elev 36 ft 29.19 °N, 95.42 °W | Updated 1 minute ago

Clear
Clear
50.2 °F
Feels Like 50.2 °F
N
1.0
Wind Variable Wind from NNE
Gusts 2.0 mph

Today
High -- | Low -- °F
--% Chance of Precip.
Yesterday
High -- | Low -- °F
Precip. -- in
7:11 AM 5:59 PM
Waxing Gibbous, 88% visible
Pressure 30.28 in
Visibility 10.0 miles
Clouds Clear
Dew Point 47 °F
Humidity 88%
Rainfall 0.00 in
Snow Depth Not available.
UV 0 out of 12
Pollen 8.30 out of 12
Air Quality Not available.
Flu Activity Not available.
METAR KLBX 310553Z AUTO 08004KT 10SM CLR 10/07 A3028 RMK AO2 SLP252 T01000072 10122 20083 401670083 58011

More Conditions Fewer Conditions

Pressure 30.28 in
Visibility 10.0 miles
Clouds Clear
Dew Point 47 °F
Humidity 88%
Rainfall 0.00 in
Snow Depth Not available.
UV 0 out of 12
Pollen 8.30 out of 12
Air Quality Not available.
Flu Activity Not available.
METAR KLBX 310553Z AUTO 08004KT 10SM CLR 10/07 A3028 RMK AO2 SLP252 T01000072 10122 20083 401670083 58011

More Conditions Fewer Conditions

10-Day Weather Forecast

Almanac

Astronomy

Jan. 31, 2015 Rise Set
Actual Time
Civil Twilight
Nautical Twilight
Astronomical Twilight
Moon
Length of Visible Light
Length of Day
Tomorrow will be .
, % of the Moon is Illuminated

Today's Extremes

State Highs State Lows

Community

WunderPhotos

Upload Photos

1,792,013 photos uploaded!

WunderBlogs® & News

Nearby

Air Quality

  Air Quality AQ Index Pollutant
Not available.

Snow Depth

Station Depth Elevation

Earthquake Activity

City Distance Mag. Time & Date
Minimum magnitude displayed is 2.5.

Coastal Water Temperatures

Place Temperature

Nearby Weather Stations